createdAt,value
2019-03-23T00:01:56.137Z,9.77
2019-03-23T00:04:25.492Z,11.53
2019-03-23T00:06:53.989Z,10.90
2019-03-23T00:09:22.443Z,11.90
2019-03-23T00:11:51.019Z,9.43
2019-03-23T00:14:19.369Z,13.30
2019-03-23T00:16:47.845Z,11.70
2019-03-23T00:19:16.466Z,10.70
2019-03-23T00:21:44.804Z,10.37
2019-03-23T00:24:13.365Z,10.57
2019-03-23T00:26:41.700Z,11.97
2019-03-23T00:29:10.270Z,14.60
2019-03-23T00:31:38.545Z,22.53
2019-03-23T00:34:07.078Z,11.30
2019-03-23T00:36:41.528Z,11.50
2019-03-23T00:39:07.296Z,9.93
2019-03-23T00:41:35.953Z,11.23
2019-03-23T00:44:04.332Z,10.60
2019-03-23T00:46:33.064Z,10.50
2019-03-23T00:49:01.754Z,10.77
2019-03-23T00:51:33.312Z,13.03
2019-03-23T00:54:01.755Z,10.27
2019-03-23T00:56:30.282Z,12.97
2019-03-23T00:58:59.649Z,10.53
2019-03-23T01:01:28.028Z,12.20
2019-03-23T01:03:57.996Z,10.70
2019-03-23T01:06:26.574Z,11.93
2019-03-23T01:08:55.169Z,12.27
2019-03-23T01:11:23.649Z,13.20
2019-03-23T01:13:52.237Z,10.97
2019-03-23T01:16:20.943Z,11.43
2019-03-23T01:18:49.431Z,12.00
2019-03-23T01:21:18.220Z,11.37
2019-03-23T01:23:46.628Z,11.80
2019-03-23T01:26:15.344Z,9.73
2019-03-23T01:28:43.988Z,11.40
2019-03-23T01:31:12.430Z,12.47
2019-03-23T01:33:41.313Z,12.17
2019-03-23T01:36:09.830Z,11.57
2019-03-23T01:38:38.077Z,11.00
2019-03-23T01:41:06.492Z,10.97
2019-03-23T01:43:34.921Z,11.03
2019-03-23T01:46:03.333Z,13.37
2019-03-23T01:48:31.932Z,11.23
2019-03-23T01:51:00.615Z,12.43
2019-03-23T01:53:29.296Z,12.27
2019-03-23T01:55:57.982Z,12.00
2019-03-23T01:58:26.573Z,11.53
2019-03-23T02:00:55.272Z,10.97
2019-03-23T02:03:23.882Z,13.13
2019-03-23T02:05:52.465Z,10.57
2019-03-23T02:08:21.152Z,11.87
2019-03-23T02:10:49.870Z,11.80
2019-03-23T02:13:18.339Z,12.00
2019-03-23T02:15:46.832Z,11.80
2019-03-23T02:18:15.201Z,11.53
2019-03-23T02:20:44.802Z,13.23
2019-03-23T02:23:13.524Z,13.13
2019-03-23T02:25:41.955Z,11.73
2019-03-23T02:28:11.472Z,14.17
2019-03-23T02:30:40.383Z,13.30
2019-03-23T02:33:09.094Z,12.33
2019-03-23T02:35:37.474Z,10.97
2019-03-23T02:38:06.091Z,11.47
2019-03-23T02:40:34.720Z,11.70
2019-03-23T02:43:03.252Z,13.33
2019-03-23T02:45:32.080Z,15.27
2019-03-23T02:48:00.496Z,12.53
2019-03-23T02:50:29.090Z,13.50
2019-03-23T02:52:57.792Z,11.23
2019-03-23T02:55:26.297Z,14.87
2019-03-23T02:57:54.949Z,12.20
2019-03-23T03:00:23.682Z,13.17
2019-03-23T03:02:52.307Z,13.67
2019-03-23T03:05:21.206Z,11.40
2019-03-23T03:07:49.888Z,12.23
2019-03-23T03:10:40.371Z,12.10
2019-03-23T03:13:09.954Z,11.07
2019-03-23T03:15:38.468Z,13.70
2019-03-23T03:18:07.247Z,10.67
2019-03-23T03:20:35.639Z,12.07
2019-03-23T03:23:04.146Z,11.77
2019-03-23T03:25:32.456Z,12.37
2019-03-23T03:28:00.877Z,12.57
2019-03-23T03:30:29.326Z,11.70
2019-03-23T03:32:57.985Z,11.37
2019-03-23T03:35:26.355Z,13.40
2019-03-23T03:37:56.864Z,12.37
2019-03-23T03:40:25.260Z,11.03
2019-03-23T03:42:53.622Z,11.17
2019-03-23T03:45:25.888Z,11.63
2019-03-23T03:47:54.397Z,12.97
2019-03-23T03:50:22.865Z,13.27
2019-03-23T03:52:51.426Z,11.60
2019-03-23T03:55:20.109Z,14.83
2019-03-23T03:57:48.636Z,13.53
2019-03-23T04:00:17.495Z,12.43
2019-03-23T04:02:45.926Z,12.90
2019-03-23T04:05:14.675Z,13.13
2019-03-23T04:07:43.210Z,11.27
2019-03-23T04:10:11.852Z,13.80
2019-03-23T04:12:40.356Z,12.30
2019-03-23T04:15:09.022Z,12.73
2019-03-23T04:17:38.523Z,12.67
2019-03-23T04:20:07.408Z,13.17
2019-03-23T04:22:35.841Z,14.47
2019-03-23T04:25:04.572Z,12.93
2019-03-23T04:27:33.054Z,13.57
2019-03-23T04:30:01.264Z,12.37
2019-03-23T04:32:29.569Z,11.63
2019-03-23T04:34:58.280Z,13.33
2019-03-23T04:37:26.678Z,12.13
2019-03-23T04:39:55.293Z,15.00
2019-03-23T04:42:23.794Z,14.47
2019-03-23T04:44:52.193Z,12.23
2019-03-23T04:47:20.544Z,14.50
2019-03-23T04:49:49.077Z,11.03
2019-03-23T04:52:17.477Z,13.73
2019-03-23T04:54:45.827Z,12.83
2019-03-23T04:57:14.472Z,11.43
2019-03-23T04:59:42.994Z,14.20
2019-03-23T05:02:11.429Z,11.67
2019-03-23T05:04:40.077Z,12.13
2019-03-23T05:07:08.608Z,11.20
2019-03-23T05:09:37.531Z,14.40
2019-03-23T05:12:05.964Z,12.60
2019-03-23T05:14:34.399Z,15.47
2019-03-23T05:17:02.892Z,12.13
2019-03-23T05:19:31.560Z,17.13
2019-03-23T05:22:00.020Z,15.10
2019-03-23T05:24:28.548Z,13.43
2019-03-23T05:26:56.873Z,16.53
2019-03-23T05:29:25.493Z,13.47
2019-03-23T05:31:53.895Z,14.77
2019-03-23T05:34:22.371Z,15.93
2019-03-23T05:36:50.715Z,13.77
2019-03-23T05:39:19.192Z,15.70
2019-03-23T05:41:47.676Z,12.40
2019-03-23T05:44:16.110Z,15.67
2019-03-23T05:46:44.494Z,19.60
2019-03-23T05:49:13.063Z,15.77
2019-03-23T05:51:41.593Z,14.90
2019-03-23T05:54:09.909Z,19.90
2019-03-23T05:56:38.442Z,21.70
2019-03-23T05:59:07.172Z,23.97
2019-03-23T06:01:35.555Z,19.30
2019-03-23T06:04:04.142Z,18.27
2019-03-23T06:06:32.578Z,17.73
2019-03-23T06:09:01.002Z,20.93
2019-03-23T06:11:30.928Z,16.87
2019-03-23T06:13:59.493Z,16.53
2019-03-23T06:16:27.993Z,17.53
2019-03-23T06:18:56.533Z,20.17
2019-03-23T06:21:25.335Z,17.20
2019-03-23T06:23:54.036Z,16.63
2019-03-23T06:26:22.289Z,14.53
2019-03-23T06:28:50.579Z,18.50
2019-03-23T06:31:19.092Z,17.07
2019-03-23T06:33:47.380Z,17.17
2019-03-23T06:36:16.017Z,16.73
2019-03-23T06:38:44.520Z,13.80
2019-03-23T06:41:13.031Z,14.77
2019-03-23T06:43:41.547Z,17.10
2019-03-23T06:46:09.971Z,18.20
2019-03-23T06:48:38.543Z,18.63
2019-03-23T06:51:07.206Z,19.90
2019-03-23T06:53:35.528Z,17.83
2019-03-23T06:56:04.533Z,12.77
2019-03-23T06:58:32.976Z,12.87
2019-03-23T07:01:01.369Z,16.70
2019-03-23T07:03:29.911Z,15.07
2019-03-23T07:05:58.319Z,13.10
2019-03-23T07:08:31.994Z,15.87
2019-03-23T07:10:59.715Z,15.90
2019-03-23T07:13:28.413Z,13.67
2019-03-23T07:15:56.954Z,13.20
2019-03-23T07:18:25.334Z,12.73
2019-03-23T07:20:53.724Z,15.50
2019-03-23T07:23:22.042Z,15.07
2019-03-23T07:25:50.596Z,12.67
2019-03-23T07:28:19.287Z,12.07
2019-03-23T07:30:47.789Z,16.33
2019-03-23T07:33:17.231Z,12.57
2019-03-23T07:35:47.067Z,13.40
2019-03-23T07:38:15.364Z,13.60
2019-03-23T07:40:45.019Z,12.40
2019-03-23T07:43:13.562Z,17.57
2019-03-23T07:45:42.233Z,9.87
2019-03-23T07:48:10.629Z,13.40
2019-03-23T07:50:39.597Z,10.47
2019-03-23T07:53:08.097Z,11.77
2019-03-23T07:55:36.653Z,12.30
2019-03-23T07:58:05.123Z,10.63
2019-03-23T08:00:33.756Z,9.78
2019-03-23T08:03:02.463Z,11.73
2019-03-23T08:05:31.069Z,13.60
2019-03-23T08:07:59.575Z,11.63
2019-03-23T08:10:29.466Z,13.45
2019-03-23T08:12:58.122Z,10.98
2019-03-23T08:15:26.610Z,11.88
2019-03-23T08:17:56.161Z,11.38
2019-03-23T08:20:24.493Z,9.70
2019-03-23T08:22:53.127Z,12.93
2019-03-23T08:25:21.899Z,10.43
2019-03-23T08:27:50.512Z,12.60
2019-03-23T08:30:19.150Z,15.72
2019-03-23T08:32:48.802Z,17.77
2019-03-23T08:35:18.604Z,9.88
2019-03-23T08:37:47.203Z,11.48
2019-03-23T08:40:15.992Z,11.95
2019-03-23T08:42:45.621Z,11.20
2019-03-23T08:45:14.337Z,13.88
2019-03-23T08:47:42.777Z,14.18
2019-03-23T08:50:11.578Z,11.68
2019-03-23T08:52:40.164Z,14.00
2019-03-23T08:55:08.712Z,12.40
2019-03-23T08:57:37.346Z,13.83
2019-03-23T09:00:06.248Z,14.10
2019-03-23T09:02:36.366Z,14.25
2019-03-23T09:05:05.225Z,16.02
2019-03-23T09:07:33.892Z,13.43
2019-03-23T09:10:02.374Z,14.23
2019-03-23T09:12:30.983Z,15.48
2019-03-23T09:14:59.763Z,15.15
2019-03-23T09:17:28.355Z,15.03
2019-03-23T09:19:57.028Z,14.45
2019-03-23T09:22:25.651Z,15.60
2019-03-23T09:24:56.985Z,17.75
2019-03-23T09:27:25.053Z,14.07
2019-03-23T09:29:53.583Z,15.48
2019-03-23T09:32:21.959Z,14.05
2019-03-23T09:34:50.883Z,15.15
2019-03-23T09:37:19.432Z,14.05
2019-03-23T09:39:47.796Z,14.98
2019-03-23T09:42:16.398Z,13.75
2019-03-23T09:44:45.060Z,19.17
2019-03-23T09:47:13.805Z,13.53
2019-03-23T09:49:42.409Z,12.28
2019-03-23T09:52:11.026Z,13.90
2019-03-23T09:54:39.649Z,12.50
2019-03-23T09:57:08.124Z,12.43
2019-03-23T09:59:36.624Z,13.50
2019-03-23T10:02:05.100Z,15.40
2019-03-23T10:04:33.666Z,15.65
2019-03-23T10:07:01.966Z,15.38
2019-03-23T10:09:30.517Z,14.23
2019-03-23T10:11:59.617Z,14.20
2019-03-23T10:14:28.194Z,16.12
2019-03-23T10:16:56.503Z,14.23
2019-03-23T10:19:24.943Z,15.60
2019-03-23T10:21:53.439Z,13.30
2019-03-23T10:24:24.805Z,15.48
2019-03-23T10:26:53.165Z,15.80
2019-03-23T10:29:22.568Z,14.68
2019-03-23T10:31:51.181Z,14.63
2019-03-23T10:34:19.724Z,14.20
2019-03-23T10:36:48.026Z,13.93
2019-03-23T10:39:17.345Z,15.43
2019-03-23T10:41:45.767Z,16.00
2019-03-23T10:44:14.400Z,14.53
2019-03-23T10:46:43.038Z,14.55
2019-03-23T10:49:11.403Z,16.45
2019-03-23T10:51:39.773Z,15.23
2019-03-23T10:54:08.385Z,16.80
2019-03-23T10:56:36.814Z,13.78
2019-03-23T10:59:05.389Z,13.38
2019-03-23T11:01:34.783Z,14.38
2019-03-23T11:04:03.323Z,14.78
2019-03-23T11:06:31.936Z,14.95
2019-03-23T11:09:00.387Z,13.85
2019-03-23T11:11:28.715Z,12.45
2019-03-23T11:13:57.078Z,12.65
2019-03-23T11:16:25.359Z,14.53
2019-03-23T11:18:53.981Z,13.60
2019-03-23T11:21:22.250Z,14.07
2019-03-23T11:23:50.719Z,14.30
2019-03-23T11:26:19.387Z,16.67
2019-03-23T11:28:47.922Z,13.93
2019-03-23T11:31:16.695Z,13.45
2019-03-23T11:33:46.099Z,16.85
2019-03-23T11:36:14.438Z,14.63
2019-03-23T11:38:42.974Z,13.53
2019-03-23T11:41:11.346Z,13.72
2019-03-23T11:43:39.852Z,13.10
2019-03-23T11:46:08.412Z,13.08
2019-03-23T11:48:36.874Z,13.00
2019-03-23T11:51:06.274Z,12.90
2019-03-23T11:53:34.779Z,14.07
2019-03-23T11:56:03.209Z,14.40
2019-03-23T11:58:33.691Z,14.05
2019-03-23T12:01:02.164Z,14.10
2019-03-23T12:03:30.607Z,16.37
2019-03-23T12:05:59.180Z,14.18
2019-03-23T12:08:27.781Z,12.88
2019-03-23T12:11:02.946Z,13.13
2019-03-23T12:13:26.944Z,12.80
2019-03-23T12:15:55.504Z,12.58
2019-03-23T12:18:24.120Z,12.30
2019-03-23T12:20:52.609Z,13.10
2019-03-23T12:23:21.188Z,14.58
2019-03-23T12:25:49.710Z,12.95
2019-03-23T12:28:18.228Z,12.60
2019-03-23T12:30:46.786Z,11.93
2019-03-23T12:33:15.329Z,12.73
2019-03-23T12:35:43.749Z,10.72
2019-03-23T12:38:12.052Z,11.85
2019-03-23T12:40:40.412Z,13.03
2019-03-23T12:43:08.946Z,12.70
2019-03-23T12:45:38.899Z,13.43
2019-03-23T12:48:07.701Z,12.95
2019-03-23T12:50:36.019Z,12.95
2019-03-23T12:53:04.675Z,13.43
2019-03-23T12:55:33.385Z,9.05
2019-03-23T12:58:03.560Z,9.28
2019-03-23T13:00:32.224Z,12.10
2019-03-23T13:03:00.823Z,12.30
2019-03-23T13:05:29.259Z,10.40
2019-03-23T13:07:59.855Z,12.25
2019-03-23T13:10:28.648Z,11.68
2019-03-23T13:12:58.455Z,12.50
2019-03-23T13:15:27.401Z,11.12
2019-03-23T13:17:56.064Z,11.83
2019-03-23T13:20:24.596Z,12.35
2019-03-23T13:22:53.203Z,11.90
2019-03-23T13:25:21.708Z,11.97
2019-03-23T13:27:51.667Z,11.40
2019-03-23T13:30:20.441Z,13.72
2019-03-23T13:32:49.044Z,11.90
2019-03-23T13:35:17.884Z,10.80
2019-03-23T13:37:46.333Z,9.73
2019-03-23T13:40:16.431Z,10.53
2019-03-23T13:42:45.013Z,12.05
2019-03-23T13:45:15.351Z,10.45
2019-03-23T13:47:43.851Z,13.35
2019-03-23T13:50:16.244Z,11.20
2019-03-23T13:52:44.813Z,10.43
2019-03-23T13:55:24.409Z,13.55
2019-03-23T13:57:54.057Z,11.33
2019-03-23T14:00:23.549Z,11.73
2019-03-23T14:02:52.015Z,10.72
2019-03-23T14:05:20.420Z,11.83
2019-03-23T14:07:52.589Z,12.15
2019-03-23T14:10:20.968Z,10.68
2019-03-23T14:12:49.602Z,10.35
2019-03-23T14:15:18.062Z,12.37
2019-03-23T14:17:46.732Z,11.08
2019-03-23T14:20:15.015Z,10.40
2019-03-23T14:22:43.396Z,10.05
2019-03-23T14:25:20.023Z,14.73
2019-03-23T14:27:48.600Z,12.00
2019-03-23T14:30:18.037Z,11.35
2019-03-23T14:32:46.644Z,10.78
2019-03-23T14:35:14.869Z,10.48
2019-03-23T14:37:43.476Z,9.83
2019-03-23T14:40:11.764Z,11.95
2019-03-23T14:42:40.338Z,13.03
2019-03-23T14:45:08.721Z,10.55
2019-03-23T14:47:37.505Z,11.28
2019-03-23T14:50:06.160Z,13.83
2019-03-23T14:52:35.013Z,12.97
2019-03-23T14:55:03.383Z,12.25
2019-03-23T14:57:35.524Z,14.90
2019-03-23T15:00:05.228Z,12.27
2019-03-23T15:02:34.882Z,14.17
2019-03-23T15:05:06.824Z,10.63
2019-03-23T15:07:35.474Z,13.63
2019-03-23T15:10:05.202Z,10.37
2019-03-23T15:12:34.002Z,10.43
2019-03-23T15:15:02.451Z,13.27
2019-03-23T15:17:30.922Z,14.13
2019-03-23T15:20:00.972Z,11.23
2019-03-23T15:22:29.459Z,13.97
2019-03-23T15:24:58.033Z,11.50
2019-03-23T15:27:26.434Z,13.00
2019-03-23T15:29:55.201Z,11.23
2019-03-23T15:32:23.586Z,10.77
2019-03-23T15:34:52.082Z,15.47
2019-03-23T15:37:20.572Z,10.57
2019-03-23T15:39:49.155Z,12.97
2019-03-23T15:42:24.712Z,12.00
2019-03-23T15:44:47.986Z,11.50
2019-03-23T15:47:16.402Z,10.77
2019-03-23T15:49:44.736Z,11.47
2019-03-23T15:52:13.089Z,13.03
2019-03-23T15:54:41.438Z,13.10
2019-03-23T15:57:09.773Z,12.13
2019-03-23T15:59:38.251Z,12.80
2019-03-23T16:02:07.346Z,11.37
2019-03-23T16:04:36.976Z,13.67
2019-03-23T16:07:05.632Z,10.10
2019-03-23T16:09:34.630Z,10.70
2019-03-23T16:12:03.247Z,10.40
2019-03-23T16:14:33.449Z,10.40
2019-03-23T16:17:02.111Z,11.17
2019-03-23T16:19:30.685Z,11.17
2019-03-23T16:22:00.184Z,11.03
2019-03-23T16:24:28.762Z,10.10
2019-03-23T16:26:57.593Z,10.77
2019-03-23T16:29:25.996Z,10.03
2019-03-23T16:31:54.591Z,9.53
2019-03-23T16:34:24.245Z,12.33
2019-03-23T16:36:52.940Z,17.10
2019-03-23T16:39:21.264Z,6.50
2019-03-23T16:41:49.658Z,9.77
2019-03-23T16:44:17.970Z,9.07
2019-03-23T16:46:46.690Z,7.37
2019-03-23T16:49:15.246Z,7.77
2019-03-23T16:51:43.495Z,9.40
2019-03-23T16:54:12.607Z,10.87
2019-03-23T16:56:41.190Z,9.47
2019-03-23T16:59:09.575Z,14.13
2019-03-23T17:01:38.033Z,24.83
2019-03-23T17:04:06.633Z,58.37
2019-03-23T17:06:45.847Z,65.23
2019-03-23T17:09:05.714Z,92.37
2019-03-23T17:11:34.242Z,39.67
2019-03-23T17:14:02.912Z,64.47
2019-03-23T17:16:31.259Z,80.80
2019-03-23T17:18:59.672Z,41.87
2019-03-23T17:21:28.113Z,25.93
2019-03-23T17:23:56.574Z,33.20
2019-03-23T17:26:25.720Z,48.60
2019-03-23T17:28:54.178Z,73.83
2019-03-23T17:31:22.724Z,76.03
2019-03-23T17:33:51.387Z,20.67
2019-03-23T17:36:19.711Z,17.73
2019-03-23T17:38:48.333Z,23.50
2019-03-23T17:41:16.822Z,31.60
2019-03-23T17:43:45.345Z,20.97
2019-03-23T17:46:13.749Z,13.20
2019-03-23T17:48:42.155Z,11.77
2019-03-23T17:51:10.466Z,11.80
2019-03-23T17:53:38.991Z,8.90
2019-03-23T17:56:07.538Z,16.33
2019-03-23T17:58:36.159Z,10.97
2019-03-23T18:01:05.537Z,15.53
2019-03-23T18:03:34.108Z,16.93
2019-03-23T18:06:02.769Z,17.47
2019-03-23T18:08:31.076Z,25.70
2019-03-23T18:10:59.645Z,14.60
2019-03-23T18:13:28.140Z,14.07
2019-03-23T18:15:57.207Z,14.87
2019-03-23T18:18:25.668Z,15.27
2019-03-23T18:20:54.393Z,15.17
2019-03-23T18:23:22.756Z,15.83
2019-03-23T18:25:51.418Z,12.10
2019-03-23T18:28:20.006Z,11.23
2019-03-23T18:30:48.610Z,9.20
2019-03-23T18:33:17.044Z,10.77
2019-03-23T18:35:48.393Z,12.90
2019-03-23T18:38:16.957Z,8.93
2019-03-23T18:40:45.710Z,11.83
2019-03-23T18:43:14.153Z,12.03
2019-03-23T18:45:42.618Z,11.67
2019-03-23T18:48:10.988Z,11.50
2019-03-23T18:50:39.358Z,10.33
2019-03-23T18:53:08.317Z,10.90
2019-03-23T18:55:36.832Z,9.87
2019-03-23T18:58:05.415Z,8.73
2019-03-23T19:00:36.015Z,12.97
2019-03-23T19:03:04.733Z,8.87
2019-03-23T19:05:33.248Z,13.17
2019-03-23T19:08:01.811Z,8.27
2019-03-23T19:10:30.162Z,11.33
2019-03-23T19:12:58.659Z,8.07
2019-03-23T19:15:27.428Z,12.17
2019-03-23T19:17:55.778Z,9.13
2019-03-23T19:20:24.150Z,8.77
2019-03-23T19:22:52.508Z,9.77
2019-03-23T19:25:20.862Z,9.67
2019-03-23T19:27:49.481Z,8.40
2019-03-23T19:30:18.310Z,11.40
2019-03-23T19:32:46.723Z,8.80
2019-03-23T19:35:15.008Z,14.90
2019-03-23T19:37:43.499Z,13.50
2019-03-23T19:40:11.824Z,10.10
2019-03-23T19:42:41.280Z,10.40
2019-03-23T19:45:10.390Z,11.87
2019-03-23T19:47:38.980Z,13.37
2019-03-23T19:50:07.741Z,9.07
2019-03-23T19:52:36.198Z,8.83
2019-03-23T19:55:04.455Z,9.13
2019-03-23T19:57:32.685Z,11.57
2019-03-23T20:00:00.823Z,10.03
2019-03-23T20:02:29.043Z,9.47
2019-03-23T20:04:58.228Z,12.93
2019-03-23T20:07:33.017Z,12.50
2019-03-23T20:09:56.515Z,14.90
2019-03-23T20:12:24.803Z,12.93
2019-03-23T20:14:53.821Z,11.77
2019-03-23T20:17:22.073Z,11.73
2019-03-23T20:19:50.217Z,12.67
2019-03-23T20:22:18.661Z,13.63
2019-03-23T20:24:46.704Z,12.40
2019-03-23T20:27:15.009Z,11.77
2019-03-23T20:29:43.149Z,11.97
2019-03-23T20:32:11.444Z,13.00
2019-03-23T20:34:39.616Z,15.37
2019-03-23T20:37:08.510Z,14.60
2019-03-23T20:39:36.829Z,12.67
2019-03-23T20:42:05.110Z,13.87
2019-03-23T20:44:33.204Z,11.60
2019-03-23T20:47:01.515Z,13.70
2019-03-23T20:49:30.364Z,11.93
2019-03-23T20:51:58.634Z,13.43
2019-03-23T20:54:27.464Z,13.83
2019-03-23T20:56:55.734Z,16.00
2019-03-23T20:59:25.295Z,15.17
2019-03-23T21:01:53.553Z,15.07
2019-03-23T21:04:21.955Z,19.17
2019-03-23T21:06:51.912Z,14.00
2019-03-23T21:09:20.228Z,12.73
2019-03-23T21:11:48.374Z,18.07
2019-03-23T21:14:20.469Z,13.73
2019-03-23T21:16:46.710Z,13.97
2019-03-23T21:19:14.963Z,13.07
2019-03-23T21:21:43.182Z,18.53
2019-03-23T21:24:11.440Z,13.30
2019-03-23T21:26:39.575Z,16.37
2019-03-23T21:29:07.728Z,15.07
2019-03-23T21:31:35.884Z,19.13
2019-03-23T21:34:04.172Z,15.23
2019-03-23T21:36:32.313Z,16.00
2019-03-23T21:39:00.595Z,12.83
2019-03-23T21:41:28.691Z,15.23
2019-03-23T21:43:56.859Z,14.23
2019-03-23T21:46:25.015Z,15.00
2019-03-23T21:48:53.364Z,12.83
2019-03-23T21:51:21.530Z,14.70
2019-03-23T21:53:50.009Z,13.87
2019-03-23T21:56:18.289Z,12.57
2019-03-23T21:58:46.512Z,13.00
2019-03-23T22:01:14.972Z,15.20
2019-03-23T22:03:43.271Z,16.67
2019-03-23T22:06:11.523Z,14.37
2019-03-23T22:08:39.745Z,12.10
2019-03-23T22:11:08.074Z,14.37
2019-03-23T22:13:36.393Z,16.77
2019-03-23T22:16:05.390Z,14.80
2019-03-23T22:18:33.960Z,17.27
2019-03-23T22:21:02.223Z,17.50
2019-03-23T22:23:30.358Z,18.80
2019-03-23T22:25:58.646Z,18.40
2019-03-23T22:28:26.814Z,18.80
2019-03-23T22:30:56.083Z,18.63
2019-03-23T22:33:24.207Z,16.27
2019-03-23T22:35:52.496Z,15.67
2019-03-23T22:38:20.641Z,16.43
2019-03-23T22:40:48.903Z,14.57
2019-03-23T22:43:16.980Z,17.37
2019-03-23T22:45:46.555Z,22.70
2019-03-23T22:48:14.695Z,16.77
2019-03-23T22:50:42.968Z,18.30
2019-03-23T22:53:11.059Z,18.80
2019-03-23T22:55:39.263Z,18.57
2019-03-23T22:58:07.392Z,20.83
2019-03-23T23:00:43.092Z,21.03
2019-03-23T23:03:12.180Z,24.90
2019-03-23T23:05:40.423Z,18.83
2019-03-23T23:08:08.528Z,19.70
2019-03-23T23:10:36.841Z,20.83
2019-03-23T23:13:04.982Z,19.10
2019-03-23T23:15:33.459Z,21.17
2019-03-23T23:18:02.803Z,18.70
2019-03-23T23:20:31.129Z,20.40
2019-03-23T23:22:59.309Z,17.93
2019-03-23T23:25:27.530Z,22.73
2019-03-23T23:27:55.744Z,22.50
2019-03-23T23:30:23.927Z,21.90
2019-03-23T23:32:52.053Z,17.43
2019-03-23T23:35:20.331Z,17.73
2019-03-23T23:37:49.459Z,19.20
2019-03-23T23:40:17.619Z,21.77
2019-03-23T23:42:45.730Z,19.83
2019-03-23T23:45:15.715Z,17.97
2019-03-23T23:47:43.987Z,16.40
2019-03-23T23:50:12.330Z,16.53
2019-03-23T23:52:40.495Z,16.93
2019-03-23T23:55:11.921Z,14.93
2019-03-23T23:57:40.184Z,15.43
